sensor_id;sensor_type;location;lat;lon;timestamp;P1;durP1;ratioP1;P2;durP2;ratioP2
15936;SDS011;9163;48.818;8.976;2023-10-08T00:02:23;5.97;;;3.37;;
15936;SDS011;9163;48.818;8.976;2023-10-08T00:04:56;5.80;;;3.30;;
15936;SDS011;9163;48.818;8.976;2023-10-08T00:07:25;6.27;;;3.20;;
15936;SDS011;9163;48.818;8.976;2023-10-08T00:09:54;5.63;;;2.83;;
15936;SDS011;9163;48.818;8.976;2023-10-08T00:12:22;7.37;;;3.37;;
15936;SDS011;9163;48.818;8.976;2023-10-08T00:14:49;7.73;;;3.13;;
15936;SDS011;9163;48.818;8.976;2023-10-08T00:17:19;6.30;;;3.10;;
15936;SDS011;9163;48.818;8.976;2023-10-08T00:19:46;6.37;;;3.30;;
15936;SDS011;9163;48.818;8.976;2023-10-08T00:22:17;7.53;;;3.40;;
15936;SDS011;9163;48.818;8.976;2023-10-08T00:24:45;6.33;;;3.60;;
15936;SDS011;9163;48.818;8.976;2023-10-08T00:27:16;7.40;;;3.60;;
15936;SDS011;9163;48.818;8.976;2023-10-08T00:29:43;6.93;;;3.40;;
15936;SDS011;9163;48.818;8.976;2023-10-08T00:32:11;5.37;;;3.07;;
15936;SDS011;9163;48.818;8.976;2023-10-08T00:34:38;6.50;;;3.30;;
15936;SDS011;9163;48.818;8.976;2023-10-08T00:37:09;8.90;;;3.27;;
15936;SDS011;9163;48.818;8.976;2023-10-08T00:39:40;8.17;;;3.37;;
15936;SDS011;9163;48.818;8.976;2023-10-08T00:42:08;7.57;;;3.50;;
15936;SDS011;9163;48.818;8.976;2023-10-08T00:44:39;4.40;;;2.70;;
15936;SDS011;9163;48.818;8.976;2023-10-08T00:47:14;5.50;;;2.90;;
15936;SDS011;9163;48.818;8.976;2023-10-08T00:49:43;8.27;;;3.03;;
15936;SDS011;9163;48.818;8.976;2023-10-08T00:52:31;7.20;;;3.17;;
15936;SDS011;9163;48.818;8.976;2023-10-08T00:55:06;7.43;;;2.97;;
15936;SDS011;9163;48.818;8.976;2023-10-08T00:57:40;7.97;;;3.37;;
15936;SDS011;9163;48.818;8.976;2023-10-08T01:00:11;6.40;;;2.93;;
15936;SDS011;9163;48.818;8.976;2023-10-08T01:02:46;6.87;;;2.97;;
15936;SDS011;9163;48.818;8.976;2023-10-08T01:05:20;7.43;;;2.80;;
15936;SDS011;9163;48.818;8.976;2023-10-08T01:07:54;8.90;;;2.90;;
15936;SDS011;9163;48.818;8.976;2023-10-08T01:10:21;7.07;;;2.93;;
15936;SDS011;9163;48.818;8.976;2023-10-08T01:12:50;7.27;;;3.27;;
15936;SDS011;9163;48.818;8.976;2023-10-08T01:15:31;6.70;;;3.53;;
15936;SDS011;9163;48.818;8.976;2023-10-08T01:18:01;6.63;;;2.97;;
15936;SDS011;9163;48.818;8.976;2023-10-08T01:20:30;6.57;;;3.30;;
15936;SDS011;9163;48.818;8.976;2023-10-08T01:23:04;6.83;;;2.97;;
15936;SDS011;9163;48.818;8.976;2023-10-08T01:25:36;7.43;;;2.90;;
15936;SDS011;9163;48.818;8.976;2023-10-08T01:28:04;5.30;;;3.20;;
15936;SDS011;9163;48.818;8.976;2023-10-08T01:30:40;5.77;;;3.50;;
15936;SDS011;9163;48.818;8.976;2023-10-08T01:33:08;7.47;;;2.80;;
15936;SDS011;9163;48.818;8.976;2023-10-08T01:35:39;7.27;;;3.33;;
15936;SDS011;9163;48.818;8.976;2023-10-08T01:38:08;7.33;;;3.23;;
15936;SDS011;9163;48.818;8.976;2023-10-08T01:40:39;9.27;;;3.10;;
15936;SDS011;9163;48.818;8.976;2023-10-08T01:43:07;9.37;;;3.37;;
15936;SDS011;9163;48.818;8.976;2023-10-08T01:45:36;8.17;;;3.30;;
15936;SDS011;9163;48.818;8.976;2023-10-08T01:48:06;8.83;;;3.33;;
15936;SDS011;9163;48.818;8.976;2023-10-08T01:50:36;7.00;;;2.97;;
15936;SDS011;9163;48.818;8.976;2023-10-08T01:53:04;9.63;;;3.07;;
15936;SDS011;9163;48.818;8.976;2023-10-08T01:55:36;9.37;;;3.27;;
15936;SDS011;9163;48.818;8.976;2023-10-08T01:58:15;6.10;;;3.47;;
15936;SDS011;9163;48.818;8.976;2023-10-08T02:00:43;7.10;;;3.27;;
15936;SDS011;9163;48.818;8.976;2023-10-08T02:03:12;6.07;;;3.10;;
15936;SDS011;9163;48.818;8.976;2023-10-08T02:05:42;5.67;;;2.80;;
15936;SDS011;9163;48.818;8.976;2023-10-08T02:08:09;5.57;;;3.10;;
15936;SDS011;9163;48.818;8.976;2023-10-08T02:10:39;6.03;;;3.13;;
15936;SDS011;9163;48.818;8.976;2023-10-08T02:13:08;8.67;;;3.40;;
15936;SDS011;9163;48.818;8.976;2023-10-08T02:15:36;7.93;;;2.97;;
15936;SDS011;9163;48.818;8.976;2023-10-08T02:18:04;6.27;;;3.20;;
15936;SDS011;9163;48.818;8.976;2023-10-08T02:20:32;6.40;;;2.90;;
15936;SDS011;9163;48.818;8.976;2023-10-08T02:22:59;8.10;;;3.20;;
15936;SDS011;9163;48.818;8.976;2023-10-08T02:25:27;7.13;;;3.20;;
15936;SDS011;9163;48.818;8.976;2023-10-08T02:27:55;8.17;;;3.00;;
15936;SDS011;9163;48.818;8.976;2023-10-08T02:30:23;7.83;;;3.13;;
15936;SDS011;9163;48.818;8.976;2023-10-08T02:32:50;7.40;;;3.17;;
15936;SDS011;9163;48.818;8.976;2023-10-08T02:35:18;9.80;;;3.50;;
15936;SDS011;9163;48.818;8.976;2023-10-08T02:37:45;7.80;;;3.23;;
15936;SDS011;9163;48.818;8.976;2023-10-08T02:40:13;8.27;;;2.90;;
15936;SDS011;9163;48.818;8.976;2023-10-08T02:42:46;5.93;;;2.77;;
15936;SDS011;9163;48.818;8.976;2023-10-08T02:45:16;5.40;;;2.87;;
15936;SDS011;9163;48.818;8.976;2023-10-08T02:47:43;8.50;;;3.30;;
15936;SDS011;9163;48.818;8.976;2023-10-08T02:50:11;8.53;;;2.97;;
15936;SDS011;9163;48.818;8.976;2023-10-08T02:52:42;6.03;;;2.80;;
15936;SDS011;9163;48.818;8.976;2023-10-08T02:55:11;6.90;;;2.90;;
15936;SDS011;9163;48.818;8.976;2023-10-08T02:57:50;6.50;;;3.07;;
15936;SDS011;9163;48.818;8.976;2023-10-08T03:00:19;7.00;;;3.40;;
15936;SDS011;9163;48.818;8.976;2023-10-08T03:02:46;8.73;;;2.90;;
15936;SDS011;9163;48.818;8.976;2023-10-08T03:05:15;6.10;;;2.93;;
15936;SDS011;9163;48.818;8.976;2023-10-08T03:07:44;5.83;;;2.83;;
15936;SDS011;9163;48.818;8.976;2023-10-08T03:10:16;5.63;;;2.67;;
15936;SDS011;9163;48.818;8.976;2023-10-08T03:12:44;6.70;;;3.00;;
15936;SDS011;9163;48.818;8.976;2023-10-08T03:15:14;9.57;;;3.30;;
15936;SDS011;9163;48.818;8.976;2023-10-08T03:17:55;6.43;;;3.00;;
15936;SDS011;9163;48.818;8.976;2023-10-08T03:20:35;7.33;;;3.03;;
15936;SDS011;9163;48.818;8.976;2023-10-08T03:23:08;7.87;;;2.70;;
15936;SDS011;9163;48.818;8.976;2023-10-08T03:25:51;6.87;;;2.90;;
15936;SDS011;9163;48.818;8.976;2023-10-08T03:28:24;8.33;;;3.30;;
15936;SDS011;9163;48.818;8.976;2023-10-08T03:30:53;5.70;;;2.87;;
15936;SDS011;9163;48.818;8.976;2023-10-08T03:33:30;7.17;;;3.20;;
15936;SDS011;9163;48.818;8.976;2023-10-08T03:36:00;9.37;;;3.23;;
15936;SDS011;9163;48.818;8.976;2023-10-08T03:38:35;6.20;;;3.30;;
15936;SDS011;9163;48.818;8.976;2023-10-08T03:41:16;8.13;;;3.20;;
15936;SDS011;9163;48.818;8.976;2023-10-08T03:43:46;5.07;;;2.87;;
15936;SDS011;9163;48.818;8.976;2023-10-08T03:46:27;6.87;;;3.33;;
15936;SDS011;9163;48.818;8.976;2023-10-08T03:48:56;7.33;;;3.10;;
15936;SDS011;9163;48.818;8.976;2023-10-08T03:51:30;7.53;;;3.30;;
15936;SDS011;9163;48.818;8.976;2023-10-08T03:54:05;8.63;;;3.33;;
15936;SDS011;9163;48.818;8.976;2023-10-08T03:56:46;8.10;;;3.10;;
15936;SDS011;9163;48.818;8.976;2023-10-08T03:59:14;5.37;;;3.10;;
15936;SDS011;9163;48.818;8.976;2023-10-08T04:01:46;10.20;;;3.30;;
15936;SDS011;9163;48.818;8.976;2023-10-08T04:04:16;7.83;;;2.90;;
15936;SDS011;9163;48.818;8.976;2023-10-08T04:06:43;7.93;;;3.30;;
15936;SDS011;9163;48.818;8.976;2023-10-08T04:09:16;6.77;;;3.10;;
15936;SDS011;9163;48.818;8.976;2023-10-08T04:11:50;9.47;;;3.13;;
15936;SDS011;9163;48.818;8.976;2023-10-08T04:14:22;10.10;;;3.13;;
15936;SDS011;9163;48.818;8.976;2023-10-08T04:16:51;6.63;;;3.33;;
15936;SDS011;9163;48.818;8.976;2023-10-08T04:19:20;10.43;;;3.20;;
15936;SDS011;9163;48.818;8.976;2023-10-08T04:21:52;10.97;;;3.37;;
15936;SDS011;9163;48.818;8.976;2023-10-08T04:24:23;5.17;;;3.10;;
15936;SDS011;9163;48.818;8.976;2023-10-08T04:26:55;9.57;;;3.40;;
15936;SDS011;9163;48.818;8.976;2023-10-08T04:29:24;5.83;;;3.10;;
15936;SDS011;9163;48.818;8.976;2023-10-08T04:31:52;8.23;;;3.30;;
15936;SDS011;9163;48.818;8.976;2023-10-08T04:34:29;8.77;;;3.40;;
15936;SDS011;9163;48.818;8.976;2023-10-08T04:36:58;6.73;;;3.33;;
15936;SDS011;9163;48.818;8.976;2023-10-08T04:39:29;9.50;;;3.80;;
15936;SDS011;9163;48.818;8.976;2023-10-08T04:41:59;7.47;;;3.07;;
15936;SDS011;9163;48.818;8.976;2023-10-08T04:44:36;10.10;;;3.20;;
15936;SDS011;9163;48.818;8.976;2023-10-08T04:47:06;11.20;;;3.40;;
15936;SDS011;9163;48.818;8.976;2023-10-08T04:49:36;6.73;;;3.07;;
15936;SDS011;9163;48.818;8.976;2023-10-08T04:52:11;7.30;;;3.20;;
15936;SDS011;9163;48.818;8.976;2023-10-08T04:54:40;7.30;;;3.83;;
15936;SDS011;9163;48.818;8.976;2023-10-08T04:57:17;7.17;;;3.20;;
15936;SDS011;9163;48.818;8.976;2023-10-08T04:59:48;6.83;;;3.00;;
15936;SDS011;9163;48.818;8.976;2023-10-08T05:02:16;10.07;;;3.70;;
15936;SDS011;9163;48.818;8.976;2023-10-08T05:05:00;6.63;;;3.00;;
15936;SDS011;9163;48.818;8.976;2023-10-08T05:08:00;9.57;;;3.80;;
15936;SDS011;9163;48.818;8.976;2023-10-08T05:10:42;8.43;;;3.77;;
15936;SDS011;9163;48.818;8.976;2023-10-08T05:13:26;5.63;;;3.60;;
15936;SDS011;9163;48.818;8.976;2023-10-08T05:15:58;6.87;;;5.10;;
15936;SDS011;9163;48.818;8.976;2023-10-08T05:18:37;8.73;;;4.20;;
15936;SDS011;9163;48.818;8.976;2023-10-08T05:21:32;7.07;;;3.73;;
15936;SDS011;9163;48.818;8.976;2023-10-08T05:24:18;11.57;;;4.10;;
15936;SDS011;9163;48.818;8.976;2023-10-08T05:26:53;8.17;;;3.47;;
15936;SDS011;9163;48.818;8.976;2023-10-08T05:29:46;8.93;;;3.70;;
15936;SDS011;9163;48.818;8.976;2023-10-08T05:32:36;7.10;;;3.93;;
15936;SDS011;9163;48.818;8.976;2023-10-08T05:35:11;11.30;;;5.70;;
15936;SDS011;9163;48.818;8.976;2023-10-08T05:38:03;9.10;;;4.50;;
15936;SDS011;9163;48.818;8.976;2023-10-08T05:40:43;9.23;;;3.83;;
15936;SDS011;9163;48.818;8.976;2023-10-08T05:43:30;6.73;;;3.73;;
15936;SDS011;9163;48.818;8.976;2023-10-08T05:46:28;9.13;;;3.50;;
15936;SDS011;9163;48.818;8.976;2023-10-08T05:49:22;7.87;;;3.47;;
15936;SDS011;9163;48.818;8.976;2023-10-08T05:52:07;8.97;;;3.77;;
15936;SDS011;9163;48.818;8.976;2023-10-08T05:55:06;8.53;;;3.30;;
15936;SDS011;9163;48.818;8.976;2023-10-08T05:57:42;8.33;;;3.80;;
15936;SDS011;9163;48.818;8.976;2023-10-08T06:00:17;12.33;;;4.77;;
15936;SDS011;9163;48.818;8.976;2023-10-08T06:03:01;9.13;;;4.77;;
15936;SDS011;9163;48.818;8.976;2023-10-08T06:05:58;8.67;;;4.70;;
15936;SDS011;9163;48.818;8.976;2023-10-08T06:08:43;7.07;;;4.17;;
15936;SDS011;9163;48.818;8.976;2023-10-08T06:11:46;6.40;;;3.60;;
15936;SDS011;9163;48.818;8.976;2023-10-08T06:14:35;9.27;;;3.57;;
15936;SDS011;9163;48.818;8.976;2023-10-08T06:17:32;7.77;;;3.73;;
15936;SDS011;9163;48.818;8.976;2023-10-08T06:20:10;9.37;;;3.63;;
15936;SDS011;9163;48.818;8.976;2023-10-08T06:22:42;8.77;;;3.33;;
15936;SDS011;9163;48.818;8.976;2023-10-08T06:25:09;9.20;;;3.17;;
15936;SDS011;9163;48.818;8.976;2023-10-08T06:27:43;7.40;;;3.37;;
15936;SDS011;9163;48.818;8.976;2023-10-08T06:30:12;6.33;;;3.40;;
15936;SDS011;9163;48.818;8.976;2023-10-08T06:32:42;5.87;;;3.40;;
15936;SDS011;9163;48.818;8.976;2023-10-08T06:35:11;8.50;;;3.80;;
15936;SDS011;9163;48.818;8.976;2023-10-08T06:37:43;11.53;;;4.23;;
15936;SDS011;9163;48.818;8.976;2023-10-08T06:40:11;9.33;;;3.70;;
15936;SDS011;9163;48.818;8.976;2023-10-08T06:42:59;8.47;;;3.80;;
15936;SDS011;9163;48.818;8.976;2023-10-08T06:45:38;8.53;;;3.53;;
15936;SDS011;9163;48.818;8.976;2023-10-08T06:48:06;10.23;;;4.43;;
15936;SDS011;9163;48.818;8.976;2023-10-08T06:50:34;6.33;;;3.53;;
15936;SDS011;9163;48.818;8.976;2023-10-08T06:53:02;6.40;;;3.47;;
15936;SDS011;9163;48.818;8.976;2023-10-08T06:55:33;9.27;;;3.97;;
15936;SDS011;9163;48.818;8.976;2023-10-08T06:58:01;8.03;;;3.63;;
15936;SDS011;9163;48.818;8.976;2023-10-08T07:00:34;9.43;;;3.30;;
15936;SDS011;9163;48.818;8.976;2023-10-08T07:03:07;7.93;;;3.57;;
15936;SDS011;9163;48.818;8.976;2023-10-08T07:05:36;7.33;;;3.50;;
15936;SDS011;9163;48.818;8.976;2023-10-08T07:08:07;7.83;;;3.60;;
15936;SDS011;9163;48.818;8.976;2023-10-08T07:10:35;6.93;;;3.43;;
15936;SDS011;9163;48.818;8.976;2023-10-08T07:13:02;6.13;;;3.40;;
15936;SDS011;9163;48.818;8.976;2023-10-08T07:15:33;10.80;;;3.50;;
15936;SDS011;9163;48.818;8.976;2023-10-08T07:18:04;9.93;;;3.50;;
15936;SDS011;9163;48.818;8.976;2023-10-08T07:20:40;7.23;;;3.00;;
15936;SDS011;9163;48.818;8.976;2023-10-08T07:23:11;9.00;;;3.10;;
15936;SDS011;9163;48.818;8.976;2023-10-08T07:25:46;8.70;;;3.07;;
15936;SDS011;9163;48.818;8.976;2023-10-08T07:28:19;7.57;;;3.20;;
15936;SDS011;9163;48.818;8.976;2023-10-08T07:30:46;7.67;;;3.20;;
15936;SDS011;9163;48.818;8.976;2023-10-08T07:33:15;6.37;;;3.50;;
15936;SDS011;9163;48.818;8.976;2023-10-08T07:35:47;7.60;;;3.30;;
15936;SDS011;9163;48.818;8.976;2023-10-08T07:38:25;5.87;;;3.17;;
15936;SDS011;9163;48.818;8.976;2023-10-08T07:40:56;7.33;;;4.10;;
15936;SDS011;9163;48.818;8.976;2023-10-08T07:43:23;5.97;;;3.40;;
15936;SDS011;9163;48.818;8.976;2023-10-08T07:45:51;5.80;;;2.90;;
15936;SDS011;9163;48.818;8.976;2023-10-08T07:48:20;6.80;;;3.93;;
15936;SDS011;9163;48.818;8.976;2023-10-08T07:50:56;7.90;;;3.33;;
15936;SDS011;9163;48.818;8.976;2023-10-08T07:53:23;7.33;;;3.73;;
15936;SDS011;9163;48.818;8.976;2023-10-08T07:56:03;7.20;;;3.30;;
15936;SDS011;9163;48.818;8.976;2023-10-08T07:58:33;8.70;;;3.53;;
15936;SDS011;9163;48.818;8.976;2023-10-08T08:01:03;7.50;;;3.17;;
15936;SDS011;9163;48.818;8.976;2023-10-08T08:03:31;7.93;;;3.33;;
15936;SDS011;9163;48.818;8.976;2023-10-08T08:06:03;7.40;;;3.30;;
15936;SDS011;9163;48.818;8.976;2023-10-08T08:08:32;7.63;;;3.53;;
15936;SDS011;9163;48.818;8.976;2023-10-08T08:11:01;9.60;;;3.70;;
15936;SDS011;9163;48.818;8.976;2023-10-08T08:13:33;9.43;;;3.60;;
15936;SDS011;9163;48.818;8.976;2023-10-08T08:16:00;7.60;;;3.60;;
15936;SDS011;9163;48.818;8.976;2023-10-08T08:18:42;9.60;;;3.63;;
15936;SDS011;9163;48.818;8.976;2023-10-08T08:21:11;8.47;;;3.47;;
15936;SDS011;9163;48.818;8.976;2023-10-08T08:23:41;8.07;;;3.40;;
15936;SDS011;9163;48.818;8.976;2023-10-08T08:26:14;7.80;;;3.60;;
15936;SDS011;9163;48.818;8.976;2023-10-08T08:28:52;6.67;;;3.20;;
15936;SDS011;9163;48.818;8.976;2023-10-08T08:31:22;6.97;;;3.03;;
15936;SDS011;9163;48.818;8.976;2023-10-08T08:33:50;7.03;;;3.10;;
15936;SDS011;9163;48.818;8.976;2023-10-08T08:36:23;8.73;;;3.60;;
15936;SDS011;9163;48.818;8.976;2023-10-08T08:38:51;8.43;;;3.30;;
15936;SDS011;9163;48.818;8.976;2023-10-08T08:41:18;6.17;;;3.43;;
15936;SDS011;9163;48.818;8.976;2023-10-08T08:43:49;9.03;;;3.60;;
15936;SDS011;9163;48.818;8.976;2023-10-08T08:46:25;6.17;;;3.50;;
15936;SDS011;9163;48.818;8.976;2023-10-08T08:48:57;7.80;;;3.27;;
15936;SDS011;9163;48.818;8.976;2023-10-08T08:51:28;6.90;;;2.83;;
15936;SDS011;9163;48.818;8.976;2023-10-08T08:53:56;6.53;;;3.30;;
15936;SDS011;9163;48.818;8.976;2023-10-08T08:56:25;7.93;;;3.70;;
15936;SDS011;9163;48.818;8.976;2023-10-08T08:58:54;6.07;;;2.87;;
15936;SDS011;9163;48.818;8.976;2023-10-08T09:01:24;6.30;;;3.23;;
15936;SDS011;9163;48.818;8.976;2023-10-08T09:03:51;7.23;;;3.30;;
15936;SDS011;9163;48.818;8.976;2023-10-08T09:06:26;6.47;;;2.67;;
15936;SDS011;9163;48.818;8.976;2023-10-08T09:08:55;6.17;;;3.00;;
15936;SDS011;9163;48.818;8.976;2023-10-08T09:11:39;6.20;;;2.90;;
15936;SDS011;9163;48.818;8.976;2023-10-08T09:14:08;7.60;;;2.72;;
15936;SDS011;9163;48.818;8.976;2023-10-08T09:16:36;6.88;;;3.30;;
15936;SDS011;9163;48.818;8.976;2023-10-08T09:19:04;6.22;;;3.10;;
15936;SDS011;9163;48.818;8.976;2023-10-08T09:21:37;7.10;;;5.15;;
15936;SDS011;9163;48.818;8.976;2023-10-08T09:24:06;8.57;;;3.88;;
15936;SDS011;9163;48.818;8.976;2023-10-08T09:26:36;6.88;;;3.55;;
15936;SDS011;9163;48.818;8.976;2023-10-08T09:29:05;7.53;;;3.20;;
15936;SDS011;9163;48.818;8.976;2023-10-08T09:31:37;9.90;;;4.30;;
15936;SDS011;9163;48.818;8.976;2023-10-08T09:34:04;6.80;;;3.22;;
15936;SDS011;9163;48.818;8.976;2023-10-08T09:36:31;5.68;;;2.95;;
15936;SDS011;9163;48.818;8.976;2023-10-08T09:39:00;6.70;;;3.53;;
15936;SDS011;9163;48.818;8.976;2023-10-08T09:41:32;6.15;;;2.95;;
15936;SDS011;9163;48.818;8.976;2023-10-08T09:44:01;6.37;;;3.07;;
15936;SDS011;9163;48.818;8.976;2023-10-08T09:46:31;6.53;;;3.17;;
15936;SDS011;9163;48.818;8.976;2023-10-08T09:49:00;6.87;;;3.30;;
15936;SDS011;9163;48.818;8.976;2023-10-08T09:51:32;8.53;;;3.47;;
15936;SDS011;9163;48.818;8.976;2023-10-08T09:54:05;9.73;;;3.63;;
15936;SDS011;9163;48.818;8.976;2023-10-08T09:56:40;9.27;;;3.50;;
15936;SDS011;9163;48.818;8.976;2023-10-08T09:59:09;9.90;;;3.83;;
15936;SDS011;9163;48.818;8.976;2023-10-08T10:01:37;10.97;;;3.40;;
15936;SDS011;9163;48.818;8.976;2023-10-08T10:04:05;8.53;;;3.27;;
15936;SDS011;9163;48.818;8.976;2023-10-08T10:06:35;9.30;;;3.93;;
15936;SDS011;9163;48.818;8.976;2023-10-08T10:09:04;12.67;;;3.93;;
15936;SDS011;9163;48.818;8.976;2023-10-08T10:11:35;8.47;;;3.23;;
15936;SDS011;9163;48.818;8.976;2023-10-08T10:14:04;7.73;;;3.20;;
15936;SDS011;9163;48.818;8.976;2023-10-08T10:16:32;9.90;;;3.30;;
15936;SDS011;9163;48.818;8.976;2023-10-08T10:19:03;8.00;;;3.33;;
15936;SDS011;9163;48.818;8.976;2023-10-08T10:21:33;6.30;;;3.10;;
15936;SDS011;9163;48.818;8.976;2023-10-08T10:24:00;7.60;;;3.40;;
15936;SDS011;9163;48.818;8.976;2023-10-08T10:26:31;8.80;;;3.50;;
15936;SDS011;9163;48.818;8.976;2023-10-08T10:31:52;7.57;;;3.65;;
15936;SDS011;9163;48.818;8.976;2023-10-08T10:34:23;10.05;;;3.50;;
15936;SDS011;9163;48.818;8.976;2023-10-08T10:36:53;9.20;;;3.65;;
15936;SDS011;9163;48.818;8.976;2023-10-08T10:39:28;10.77;;;3.72;;
15936;SDS011;9163;48.818;8.976;2023-10-08T10:41:59;9.13;;;4.13;;
15936;SDS011;9163;48.818;8.976;2023-10-08T10:44:30;10.77;;;3.80;;
15936;SDS011;9163;48.818;8.976;2023-10-08T10:46:59;8.10;;;3.70;;
15936;SDS011;9163;48.818;8.976;2023-10-08T10:49:44;9.65;;;3.80;;
15936;SDS011;9163;48.818;8.976;2023-10-08T10:52:19;6.65;;;3.53;;
15936;SDS011;9163;48.818;8.976;2023-10-08T10:54:58;7.35;;;3.80;;
15936;SDS011;9163;48.818;8.976;2023-10-08T10:57:43;10.02;;;4.00;;
15936;SDS011;9163;48.818;8.976;2023-10-08T11:00:21;11.75;;;3.90;;
15936;SDS011;9163;48.818;8.976;2023-10-08T11:03:07;9.88;;;3.60;;
15936;SDS011;9163;48.818;8.976;2023-10-08T11:05:42;10.18;;;4.22;;
15936;SDS011;9163;48.818;8.976;2023-10-08T11:08:15;9.48;;;3.78;;
15936;SDS011;9163;48.818;8.976;2023-10-08T11:10:46;9.38;;;4.28;;
15936;SDS011;9163;48.818;8.976;2023-10-08T11:13:16;10.52;;;4.57;;
15936;SDS011;9163;48.818;8.976;2023-10-08T11:15:47;10.07;;;4.28;;
15936;SDS011;9163;48.818;8.976;2023-10-08T11:18:18;9.80;;;4.00;;
15936;SDS011;9163;48.818;8.976;2023-10-08T11:20:46;9.95;;;4.05;;
15936;SDS011;9163;48.818;8.976;2023-10-08T11:23:32;9.15;;;3.58;;
15936;SDS011;9163;48.818;8.976;2023-10-08T11:26:01;11.85;;;5.47;;
15936;SDS011;9163;48.818;8.976;2023-10-08T11:28:30;11.68;;;4.40;;
15936;SDS011;9163;48.818;8.976;2023-10-08T11:31:01;10.45;;;4.30;;
15936;SDS011;9163;48.818;8.976;2023-10-08T11:33:33;10.35;;;4.38;;
15936;SDS011;9163;48.818;8.976;2023-10-08T11:36:02;10.20;;;4.10;;
15936;SDS011;9163;48.818;8.976;2023-10-08T11:38:38;9.57;;;4.13;;
15936;SDS011;9163;48.818;8.976;2023-10-08T11:41:10;9.68;;;4.22;;
15936;SDS011;9163;48.818;8.976;2023-10-08T11:43:48;9.48;;;4.07;;
15936;SDS011;9163;48.818;8.976;2023-10-08T11:46:21;9.23;;;4.68;;
15936;SDS011;9163;48.818;8.976;2023-10-08T11:48:53;12.15;;;4.60;;
15936;SDS011;9163;48.818;8.976;2023-10-08T11:51:24;12.02;;;4.53;;
15936;SDS011;9163;48.818;8.976;2023-10-08T11:53:53;12.98;;;4.63;;
15936;SDS011;9163;48.818;8.976;2023-10-08T11:56:21;11.65;;;4.30;;
15936;SDS011;9163;48.818;8.976;2023-10-08T11:58:49;13.82;;;4.70;;
15936;SDS011;9163;48.818;8.976;2023-10-08T12:01:17;14.15;;;6.30;;
15936;SDS011;9163;48.818;8.976;2023-10-08T12:03:47;17.02;;;9.40;;
15936;SDS011;9163;48.818;8.976;2023-10-08T12:06:15;11.90;;;6.60;;
15936;SDS011;9163;48.818;8.976;2023-10-08T12:08:44;13.60;;;8.25;;
15936;SDS011;9163;48.818;8.976;2023-10-08T12:11:12;16.60;;;8.10;;
15936;SDS011;9163;48.818;8.976;2023-10-08T12:13:40;12.98;;;5.70;;
15936;SDS011;9163;48.818;8.976;2023-10-08T12:16:12;11.38;;;4.70;;
15936;SDS011;9163;48.818;8.976;2023-10-08T12:18:48;14.32;;;4.30;;
15936;SDS011;9163;48.818;8.976;2023-10-08T12:21:19;13.85;;;6.50;;
15936;SDS011;9163;48.818;8.976;2023-10-08T12:23:47;10.18;;;6.07;;
15936;SDS011;9163;48.818;8.976;2023-10-08T12:26:15;10.27;;;4.57;;
15936;SDS011;9163;48.818;8.976;2023-10-08T12:28:44;15.23;;;4.70;;
15936;SDS011;9163;48.818;8.976;2023-10-08T12:31:14;12.10;;;4.47;;
15936;SDS011;9163;48.818;8.976;2023-10-08T12:33:42;16.77;;;4.35;;
15936;SDS011;9163;48.818;8.976;2023-10-08T12:36:14;12.40;;;4.35;;
15936;SDS011;9163;48.818;8.976;2023-10-08T12:38:42;11.90;;;4.05;;
15936;SDS011;9163;48.818;8.976;2023-10-08T12:41:10;11.20;;;4.20;;
15936;SDS011;9163;48.818;8.976;2023-10-08T12:43:44;9.95;;;4.30;;
15936;SDS011;9163;48.818;8.976;2023-10-08T12:46:12;13.75;;;4.13;;
15936;SDS011;9163;48.818;8.976;2023-10-08T12:48:44;11.82;;;4.07;;
15936;SDS011;9163;48.818;8.976;2023-10-08T12:51:17;12.93;;;4.18;;
15936;SDS011;9163;48.818;8.976;2023-10-08T12:53:49;13.30;;;4.90;;
15936;SDS011;9163;48.818;8.976;2023-10-08T12:56:24;12.88;;;4.60;;
15936;SDS011;9163;48.818;8.976;2023-10-08T12:58:57;14.73;;;4.10;;
15936;SDS011;9163;48.818;8.976;2023-10-08T13:01:27;12.02;;;5.10;;
15936;SDS011;9163;48.818;8.976;2023-10-08T13:03:55;13.55;;;4.45;;
15936;SDS011;9163;48.818;8.976;2023-10-08T13:06:27;13.07;;;4.72;;
15936;SDS011;9163;48.818;8.976;2023-10-08T13:08:55;11.90;;;5.30;;
15936;SDS011;9163;48.818;8.976;2023-10-08T13:11:23;11.05;;;4.38;;
15936;SDS011;9163;48.818;8.976;2023-10-08T13:13:52;13.82;;;5.60;;
15936;SDS011;9163;48.818;8.976;2023-10-08T13:16:22;12.90;;;6.13;;
15936;SDS011;9163;48.818;8.976;2023-10-08T13:18:50;14.25;;;5.97;;
15936;SDS011;9163;48.818;8.976;2023-10-08T13:21:17;11.55;;;5.40;;
15936;SDS011;9163;48.818;8.976;2023-10-08T13:23:46;12.48;;;4.50;;
15936;SDS011;9163;48.818;8.976;2023-10-08T13:26:14;11.82;;;4.50;;
15936;SDS011;9163;48.818;8.976;2023-10-08T13:28:43;12.10;;;4.72;;
15936;SDS011;9163;48.818;8.976;2023-10-08T13:31:11;17.52;;;4.43;;
15936;SDS011;9163;48.818;8.976;2023-10-08T13:33:38;13.18;;;4.50;;
15936;SDS011;9163;48.818;8.976;2023-10-08T13:36:08;14.52;;;4.40;;
15936;SDS011;9163;48.818;8.976;2023-10-08T13:38:35;10.68;;;4.25;;
15936;SDS011;9163;48.818;8.976;2023-10-08T13:41:04;11.68;;;4.55;;
15936;SDS011;9163;48.818;8.976;2023-10-08T13:43:40;11.90;;;4.13;;
15936;SDS011;9163;48.818;8.976;2023-10-08T13:46:11;15.35;;;4.80;;
15936;SDS011;9163;48.818;8.976;2023-10-08T13:48:40;10.23;;;4.15;;
15936;SDS011;9163;48.818;8.976;2023-10-08T13:51:12;12.35;;;4.47;;
15936;SDS011;9163;48.818;8.976;2023-10-08T13:53:40;9.55;;;4.40;;
15936;SDS011;9163;48.818;8.976;2023-10-08T13:56:12;9.52;;;4.00;;
15936;SDS011;9163;48.818;8.976;2023-10-08T13:58:40;11.77;;;4.70;;
15936;SDS011;9163;48.818;8.976;2023-10-08T14:01:11;12.32;;;4.18;;
15936;SDS011;9163;48.818;8.976;2023-10-08T14:03:46;13.80;;;4.20;;
15936;SDS011;9163;48.818;8.976;2023-10-08T14:06:14;10.93;;;4.30;;
15936;SDS011;9163;48.818;8.976;2023-10-08T14:08:42;11.65;;;4.35;;
15936;SDS011;9163;48.818;8.976;2023-10-08T14:11:18;11.95;;;4.32;;
15936;SDS011;9163;48.818;8.976;2023-10-08T14:13:49;11.38;;;4.40;;
15936;SDS011;9163;48.818;8.976;2023-10-08T14:16:17;11.88;;;4.68;;
15936;SDS011;9163;48.818;8.976;2023-10-08T14:18:49;12.05;;;4.43;;
15936;SDS011;9163;48.818;8.976;2023-10-08T14:21:19;12.30;;;3.97;;
15936;SDS011;9163;48.818;8.976;2023-10-08T14:23:49;11.40;;;4.25;;
15936;SDS011;9163;48.818;8.976;2023-10-08T14:26:28;13.38;;;4.70;;
15936;SDS011;9163;48.818;8.976;2023-10-08T14:29:01;14.40;;;4.40;;
15936;SDS011;9163;48.818;8.976;2023-10-08T14:31:34;14.80;;;4.40;;
15936;SDS011;9163;48.818;8.976;2023-10-08T14:34:04;13.30;;;4.13;;
15936;SDS011;9163;48.818;8.976;2023-10-08T14:36:54;12.00;;;4.32;;
15936;SDS011;9163;48.818;8.976;2023-10-08T14:39:47;9.98;;;4.13;;
15936;SDS011;9163;48.818;8.976;2023-10-08T14:42:34;13.23;;;4.60;;
15936;SDS011;9163;48.818;8.976;2023-10-08T14:45:18;10.80;;;4.38;;
15936;SDS011;9163;48.818;8.976;2023-10-08T14:47:47;12.43;;;3.90;;
15936;SDS011;9163;48.818;8.976;2023-10-08T14:50:15;11.82;;;4.25;;
15936;SDS011;9163;48.818;8.976;2023-10-08T14:52:43;10.65;;;4.10;;
15936;SDS011;9163;48.818;8.976;2023-10-08T14:55:10;9.13;;;3.70;;
15936;SDS011;9163;48.818;8.976;2023-10-08T14:57:39;8.48;;;3.90;;
15936;SDS011;9163;48.818;8.976;2023-10-08T15:00:07;10.70;;;4.03;;
15936;SDS011;9163;48.818;8.976;2023-10-08T15:02:36;13.77;;;4.15;;
15936;SDS011;9163;48.818;8.976;2023-10-08T15:05:03;14.95;;;4.28;;
15936;SDS011;9163;48.818;8.976;2023-10-08T15:07:32;9.65;;;3.83;;
15936;SDS011;9163;48.818;8.976;2023-10-08T15:10:01;8.90;;;3.10;;
15936;SDS011;9163;48.818;8.976;2023-10-08T15:12:29;9.68;;;3.63;;
15936;SDS011;9163;48.818;8.976;2023-10-08T15:15:01;9.15;;;3.75;;
15936;SDS011;9163;48.818;8.976;2023-10-08T15:17:38;12.25;;;4.00;;
15936;SDS011;9163;48.818;8.976;2023-10-08T15:20:07;7.18;;;3.67;;
15936;SDS011;9163;48.818;8.976;2023-10-08T15:22:37;9.05;;;4.10;;
15936;SDS011;9163;48.818;8.976;2023-10-08T15:25:04;11.68;;;3.88;;
15936;SDS011;9163;48.818;8.976;2023-10-08T15:27:32;9.23;;;3.63;;
15936;SDS011;9163;48.818;8.976;2023-10-08T15:29:59;11.82;;;4.50;;
15936;SDS011;9163;48.818;8.976;2023-10-08T15:32:30;11.00;;;3.65;;